createdAt,value
2022-11-29T00:04:15.567Z,21.83
2022-11-29T00:09:23.271Z,21.67
2022-11-29T00:14:30.110Z,21.80
2022-11-29T00:19:36.877Z,20.57
2022-11-29T00:24:44.731Z,20.97
2022-11-29T00:29:49.829Z,19.77
2022-11-29T00:34:59.241Z,21.80
2022-11-29T00:40:08.156Z,21.73
2022-11-29T00:45:14.070Z,20.77
2022-11-29T00:50:19.154Z,21.70
2022-11-29T00:55:27.528Z,22.00
2022-11-29T01:00:32.660Z,23.03
2022-11-29T01:05:38.151Z,22.40
2022-11-29T01:10:46.104Z,22.00
2022-11-29T01:15:58.620Z,21.77
2022-11-29T01:21:06.002Z,21.30
2022-11-29T01:26:17.737Z,21.03
2022-11-29T01:31:24.708Z,21.43
2022-11-29T01:36:29.708Z,22.10
2022-11-29T01:41:39.276Z,21.87
2022-11-29T01:46:45.843Z,24.07
2022-11-29T01:51:54.525Z,22.87
2022-11-29T01:57:02.508Z,22.33
2022-11-29T02:02:13.112Z,20.73
2022-11-29T02:07:18.728Z,22.97
2022-11-29T02:12:35.384Z,21.23
2022-11-29T02:17:50.009Z,21.13
2022-11-29T02:23:02.172Z,21.93
2022-11-29T02:28:40.947Z,21.10
2022-11-29T02:34:03.696Z,20.93
2022-11-29T02:39:41.246Z,20.87
2022-11-29T02:45:14.124Z,21.83
2022-11-29T02:50:38.279Z,22.13
2022-11-29T02:55:49.646Z,21.03
2022-11-29T03:01:01.801Z,21.93
2022-11-29T03:06:20.858Z,21.53
2022-11-29T03:11:34.893Z,21.00
2022-11-29T03:16:46.415Z,22.73
2022-11-29T03:22:02.503Z,21.27
2022-11-29T03:27:15.398Z,20.27
2022-11-29T03:32:25.911Z,22.20
2022-11-29T03:37:46.317Z,22.03
2022-11-29T03:42:56.285Z,22.43
2022-11-29T03:48:08.035Z,20.40
2022-11-29T03:53:23.411Z,22.93
2022-11-29T03:58:45.353Z,22.23
2022-11-29T04:04:21.698Z,21.40
2022-11-29T04:09:43.374Z,21.97
2022-11-29T04:15:16.166Z,21.93
2022-11-29T04:20:53.633Z,22.60
2022-11-29T04:26:17.177Z,23.13
2022-11-29T04:31:38.090Z,22.83
2022-11-29T04:37:11.212Z,23.17
2022-11-29T04:42:40.433Z,21.73
2022-11-29T04:48:04.080Z,21.23
2022-11-29T04:53:31.656Z,24.40
2022-11-29T04:58:46.545Z,24.67
2022-11-29T05:03:58.301Z,22.43
2022-11-29T05:09:12.564Z,22.90
2022-11-29T05:14:31.395Z,23.77
2022-11-29T05:19:58.679Z,24.20
2022-11-29T05:25:20.438Z,22.73
2022-11-29T05:30:40.165Z,21.83
2022-11-29T05:35:55.326Z,22.60
2022-11-29T05:41:12.280Z,22.13
2022-11-29T05:46:25.903Z,22.50
2022-11-29T05:51:42.133Z,23.80
2022-11-29T05:56:58.612Z,22.00
2022-11-29T06:02:23.342Z,20.60
2022-11-29T06:07:34.312Z,22.77
2022-11-29T06:12:40.394Z,23.40
2022-11-29T06:18:18.099Z,22.70
2022-11-29T06:23:59.501Z,23.00
2022-11-29T06:29:23.821Z,21.17
2022-11-29T06:34:38.597Z,21.33
2022-11-29T06:39:44.200Z,22.83
2022-11-29T06:44:52.019Z,21.23
2022-11-29T06:50:05.668Z,21.30
2022-11-29T06:55:18.148Z,21.87
2022-11-29T07:00:27.883Z,22.33
2022-11-29T07:05:37.586Z,22.47
2022-11-29T07:10:46.673Z,21.63
2022-11-29T07:16:01.405Z,23.50
2022-11-29T07:21:38.113Z,22.20
2022-11-29T07:26:56.517Z,21.03
2022-11-29T07:32:13.028Z,22.00
2022-11-29T07:37:31.750Z,21.23
2022-11-29T07:42:48.767Z,22.97
2022-11-29T07:47:54.799Z,20.70
2022-11-29T07:53:04.273Z,22.57
2022-11-29T07:58:09.732Z,21.77
2022-11-29T08:03:16.048Z,20.87
2022-11-29T08:08:25.113Z,19.60
2022-11-29T08:13:31.548Z,21.53
2022-11-29T08:18:39.120Z,20.03
2022-11-29T08:23:46.940Z,21.33
2022-11-29T08:28:57.359Z,19.73
2022-11-29T08:34:02.827Z,21.33
2022-11-29T08:39:11.077Z,20.90
2022-11-29T08:44:16.260Z,20.97
2022-11-29T08:49:23.091Z,20.63
2022-11-29T08:54:33.044Z,21.20
2022-11-29T08:59:38.492Z,19.83
2022-11-29T09:04:57.802Z,21.60
2022-11-29T09:10:12.276Z,20.47
2022-11-29T09:15:17.351Z,21.03
2022-11-29T09:20:22.313Z,21.13
2022-11-29T09:25:32.490Z,19.20
2022-11-29T09:30:38.228Z,19.77
2022-11-29T09:35:43.739Z,20.43
2022-11-29T09:40:56.116Z,19.07
2022-11-29T09:46:08.640Z,19.83
2022-11-29T09:51:26.226Z,20.43
2022-11-29T09:56:40.356Z,20.93
2022-11-29T10:02:04.658Z,20.13
2022-11-29T10:07:22.687Z,20.17
2022-11-29T10:12:38.886Z,19.97
2022-11-29T10:17:51.808Z,19.77
2022-11-29T10:23:02.118Z,21.77
2022-11-29T10:28:16.366Z,19.87
2022-11-29T10:33:25.578Z,20.03
2022-11-29T10:38:31.949Z,20.43
2022-11-29T10:43:48.161Z,20.27
2022-11-29T10:48:53.324Z,19.50
2022-11-29T10:53:59.587Z,21.90
2022-11-29T10:59:09.116Z,21.03
2022-11-29T11:04:20.135Z,19.93
2022-11-29T11:09:33.338Z,21.00
2022-11-29T11:14:45.657Z,20.97
2022-11-29T11:20:00.954Z,20.63
2022-11-29T11:25:08.842Z,20.07
2022-11-29T11:30:29.452Z,20.97
2022-11-29T11:35:37.476Z,20.33
2022-11-29T11:40:53.608Z,22.17
2022-11-29T11:46:06.874Z,19.83
2022-11-29T11:51:25.675Z,21.73
2022-11-29T11:56:38.027Z,19.77
2022-11-29T12:01:45.996Z,20.47
2022-11-29T12:06:56.212Z,20.77
2022-11-29T12:12:11.785Z,20.40
2022-11-29T12:17:33.826Z,18.80
2022-11-29T12:22:48.308Z,20.47
2022-11-29T12:27:55.547Z,18.73
2022-11-29T12:33:20.126Z,18.63
2022-11-29T12:38:45.173Z,18.77
2022-11-29T12:44:05.149Z,19.70
2022-11-29T12:49:22.743Z,18.60
2022-11-29T12:54:48.052Z,19.40
2022-11-29T13:00:14.709Z,18.77
2022-11-29T13:05:37.620Z,19.27
2022-11-29T13:11:01.796Z,20.90
2022-11-29T13:16:18.940Z,19.47
2022-11-29T13:21:35.876Z,20.23
2022-11-29T13:26:45.689Z,19.70
2022-11-29T13:32:02.643Z,20.33
2022-11-29T13:37:25.209Z,17.97
2022-11-29T13:42:49.805Z,21.17
2022-11-29T13:47:57.610Z,19.93
2022-11-29T13:53:16.003Z,19.43
2022-11-29T13:58:38.628Z,20.60
2022-11-29T14:03:45.208Z,20.67
2022-11-29T14:09:36.794Z,19.27
2022-11-29T14:14:55.674Z,20.37
2022-11-29T14:20:54.223Z,20.97
2022-11-29T14:26:28.805Z,19.67
2022-11-29T14:31:58.726Z,21.53
2022-11-29T14:37:20.162Z,23.50
2022-11-29T14:42:28.606Z,24.10
2022-11-29T14:47:42.334Z,22.53
2022-11-29T14:52:56.140Z,23.80
2022-11-29T14:58:19.678Z,22.90
2022-11-29T15:03:35.147Z,24.87
2022-11-29T15:08:51.869Z,23.90
2022-11-29T15:14:04.282Z,23.23
2022-11-29T15:19:39.991Z,25.23
2022-11-29T15:24:59.518Z,25.23
2022-11-29T15:30:23.633Z,24.67
2022-11-29T15:35:34.427Z,22.70
2022-11-29T15:40:48.200Z,23.07
2022-11-29T15:45:57.000Z,24.43
2022-11-29T15:51:08.406Z,25.30
2022-11-29T15:56:20.569Z,24.03
2022-11-29T16:01:29.934Z,23.10
2022-11-29T16:06:43.849Z,23.47
2022-11-29T16:11:51.140Z,22.53
2022-11-29T16:16:58.880Z,21.97
2022-11-29T16:22:16.521Z,22.53
2022-11-29T16:27:25.550Z,22.53
2022-11-29T16:32:33.655Z,23.87
2022-11-29T16:37:56.167Z,24.37
2022-11-29T16:43:43.003Z,23.27
2022-11-29T16:48:56.233Z,24.70
2022-11-29T16:54:23.535Z,24.33
2022-11-29T16:59:30.180Z,23.23
2022-11-29T17:04:37.959Z,25.87
2022-11-29T17:09:43.042Z,23.83
2022-11-29T17:14:48.789Z,25.03
2022-11-29T17:20:02.375Z,25.33
2022-11-29T17:25:10.386Z,24.90
2022-11-29T17:30:18.506Z,24.80
2022-11-29T17:35:28.587Z,25.40
2022-11-29T17:40:36.068Z,25.93
2022-11-29T17:45:42.992Z,24.87
2022-11-29T17:50:50.647Z,26.37
2022-11-29T17:56:04.236Z,29.17
2022-11-29T18:01:12.028Z,28.13
2022-11-29T18:06:22.325Z,27.53
2022-11-29T18:11:30.285Z,26.53
2022-11-29T18:16:37.478Z,27.83
2022-11-29T18:21:45.741Z,30.47
2022-11-29T18:26:51.404Z,29.37
2022-11-29T18:32:02.067Z,28.20
2022-11-29T18:37:15.432Z,29.23
2022-11-29T18:42:25.774Z,29.70
2022-11-29T18:47:33.066Z,29.90
2022-11-29T18:52:40.958Z,30.33
2022-11-29T18:57:46.514Z,28.77
2022-11-29T19:02:51.615Z,29.93
2022-11-29T19:08:02.813Z,29.73
2022-11-29T19:13:09.179Z,31.77
2022-11-29T19:18:16.418Z,29.30
2022-11-29T19:23:25.490Z,31.03
2022-11-29T19:28:34.814Z,27.90
2022-11-29T19:33:44.947Z,29.67
2022-11-29T19:38:55.783Z,28.70
2022-11-29T19:44:03.719Z,27.63
2022-11-29T19:49:11.631Z,26.73
2022-11-29T19:54:19.667Z,26.07
2022-11-29T19:59:24.896Z,27.30
2022-11-29T20:04:30.556Z,27.73
2022-11-29T20:09:39.074Z,25.67
2022-11-29T20:14:45.527Z,23.83
2022-11-29T20:19:52.376Z,24.73
2022-11-29T20:25:03.080Z,26.70
2022-11-29T20:30:13.508Z,24.93
2022-11-29T20:35:20.280Z,24.83
2022-11-29T20:40:42.141Z,23.63
2022-11-29T20:45:48.318Z,26.30
2022-11-29T20:51:00.640Z,25.37
2022-11-29T20:56:11.164Z,24.07
2022-11-29T21:01:16.846Z,22.63
2022-11-29T21:06:22.354Z,24.73
2022-11-29T21:11:31.929Z,23.70
2022-11-29T21:16:43.319Z,23.30
2022-11-29T21:22:00.027Z,24.27
2022-11-29T21:27:12.548Z,22.20
2022-11-29T21:32:24.535Z,24.80
2022-11-29T21:37:33.238Z,23.53
2022-11-29T21:42:40.841Z,23.80
2022-11-29T21:47:46.192Z,24.90
2022-11-29T21:52:54.250Z,23.20
2022-11-29T21:58:01.801Z,25.63
2022-11-29T22:03:14.321Z,23.83
2022-11-29T22:08:19.335Z,24.07
2022-11-29T22:13:26.918Z,24.07
2022-11-29T22:18:31.916Z,23.80
2022-11-29T22:23:37.814Z,23.80
2022-11-29T22:28:51.297Z,22.97
2022-11-29T22:34:01.600Z,23.70
2022-11-29T22:39:07.337Z,22.03
2022-11-29T22:44:14.899Z,23.37
2022-11-29T22:49:19.798Z,23.30
2022-11-29T22:54:24.713Z,22.03
2022-11-29T22:59:33.983Z,23.60
2022-11-29T23:04:38.980Z,22.97
2022-11-29T23:09:44.324Z,23.00
2022-11-29T23:14:56.381Z,22.33
2022-11-29T23:20:01.933Z,22.47
2022-11-29T23:25:07.975Z,22.17
2022-11-29T23:30:18.177Z,22.03
2022-11-29T23:35:23.111Z,22.43
2022-11-29T23:40:27.979Z,20.67
2022-11-29T23:45:35.638Z,23.33
2022-11-29T23:50:40.616Z,21.07
2022-11-29T23:55:47.720Z,21.07
